sensor_id;sensor_type;location;lat;lon;timestamp;pressure;altitude;pressure_sealevel;temperature;humidity
78016;BME280;67223;51.102;5.882;2023-09-19T00:00:34;100831.19;;;16.13;100.00
78016;BME280;67223;51.102;5.882;2023-09-19T00:02:59;100833.03;;;16.13;100.00
78016;BME280;67223;51.102;5.882;2023-09-19T00:05:26;100837.94;;;16.17;100.00
78016;BME280;67223;51.102;5.882;2023-09-19T00:07:54;100826.81;;;16.12;100.00
78016;BME280;67223;51.102;5.882;2023-09-19T00:10:22;100836.16;;;16.00;100.00
78016;BME280;67223;51.102;5.882;2023-09-19T00:12:55;100844.28;;;16.08;100.00
78016;BME280;67223;51.102;5.882;2023-09-19T00:15:25;100845.22;;;15.99;100.00
78016;BME280;67223;51.102;5.882;2023-09-19T00:17:54;100851.16;;;16.03;100.00
78016;BME280;67223;51.102;5.882;2023-09-19T00:20:20;100855.69;;;16.02;100.00
78016;BME280;67223;51.102;5.882;2023-09-19T00:22:51;100859.72;;;15.98;100.00
78016;BME280;67223;51.102;5.882;2023-09-19T00:25:20;100855.19;;;15.99;100.00
78016;BME280;67223;51.102;5.882;2023-09-19T00:27:46;100859.84;;;15.88;100.00
78016;BME280;67223;51.102;5.882;2023-09-19T00:30:15;100862.59;;;16.05;100.00
78016;BME280;67223;51.102;5.882;2023-09-19T00:32:48;100865.38;;;15.87;100.00
78016;BME280;67223;51.102;5.882;2023-09-19T00:35:14;100868.47;;;15.74;100.00
78016;BME280;67223;51.102;5.882;2023-09-19T01:21:37;100922.25;;;15.66;100.00
78016;BME280;67223;51.102;5.882;2023-09-19T01:29:42;100924.34;;;15.72;100.00
78016;BME280;67223;51.102;5.882;2023-09-19T01:32:10;100929.72;;;15.72;100.00
78016;BME280;67223;51.102;5.882;2023-09-19T01:34:46;100926.31;;;15.70;100.00
78016;BME280;67223;51.102;5.882;2023-09-19T01:37:19;100933.34;;;15.63;100.00
78016;BME280;67223;51.102;5.882;2023-09-19T01:39:57;100930.94;;;15.60;100.00
78016;BME280;67223;51.102;5.882;2023-09-19T01:51:05;100939.19;;;15.59;100.00
78016;BME280;67223;51.102;5.882;2023-09-19T01:53:47;100944.44;;;15.50;100.00
78016;BME280;67223;51.102;5.882;2023-09-19T01:56:22;100942.03;;;15.57;100.00
78016;BME280;67223;51.102;5.882;2023-09-19T01:58:52;100939.69;;;15.44;100.00
78016;BME280;67223;51.102;5.882;2023-09-19T02:01:24;100948.53;;;15.37;100.00
78016;BME280;67223;51.102;5.882;2023-09-19T02:03:50;100946.94;;;15.44;100.00
78016;BME280;67223;51.102;5.882;2023-09-19T02:06:17;100943.41;;;15.43;100.00
78016;BME280;67223;51.102;5.882;2023-09-19T02:08:43;100946.28;;;15.50;100.00
78016;BME280;67223;51.102;5.882;2023-09-19T02:11:11;100947.38;;;15.39;100.00
78016;BME280;67223;51.102;5.882;2023-09-19T02:13:36;100948.28;;;15.30;100.00
78016;BME280;67223;51.102;5.882;2023-09-19T02:16:03;100949.00;;;15.50;100.00
78016;BME280;67223;51.102;5.882;2023-09-19T02:18:30;100950.38;;;15.36;100.00
78016;BME280;67223;51.102;5.882;2023-09-19T02:20:56;100945.78;;;15.29;100.00
78016;BME280;67223;51.102;5.882;2023-09-19T02:23:24;100941.59;;;15.34;100.00
78016;BME280;67223;51.102;5.882;2023-09-19T02:25:56;100950.50;;;15.17;100.00
78016;BME280;67223;51.102;5.882;2023-09-19T02:28:29;100955.09;;;15.07;100.00
78016;BME280;67223;51.102;5.882;2023-09-19T02:30:58;100962.56;;;15.13;100.00
78016;BME280;67223;51.102;5.882;2023-09-19T02:33:23;100966.13;;;15.14;100.00
78016;BME280;67223;51.102;5.882;2023-09-19T02:35:49;100969.19;;;15.19;100.00
78016;BME280;67223;51.102;5.882;2023-09-19T02:38:15;100965.75;;;15.26;100.00
78016;BME280;67223;51.102;5.882;2023-09-19T02:40:46;100966.66;;;15.17;100.00
78016;BME280;67223;51.102;5.882;2023-09-19T02:43:11;100956.53;;;15.29;100.00
78016;BME280;67223;51.102;5.882;2023-09-19T02:45:37;100963.25;;;15.15;100.00
78016;BME280;67223;51.102;5.882;2023-09-19T02:48:02;100969.03;;;15.20;100.00
78016;BME280;67223;51.102;5.882;2023-09-19T02:50:29;100965.88;;;15.07;100.00
78016;BME280;67223;51.102;5.882;2023-09-19T02:52:55;100968.47;;;14.99;100.00
78016;BME280;67223;51.102;5.882;2023-09-19T02:55:20;100973.63;;;15.10;100.00
78016;BME280;67223;51.102;5.882;2023-09-19T02:57:51;100966.25;;;14.85;100.00
78016;BME280;67223;51.102;5.882;2023-09-19T03:00:18;100974.00;;;15.15;100.00
78016;BME280;67223;51.102;5.882;2023-09-19T03:02:48;100970.94;;;15.10;100.00
78016;BME280;67223;51.102;5.882;2023-09-19T03:05:13;100975.56;;;14.90;100.00
78016;BME280;67223;51.102;5.882;2023-09-19T03:07:38;100971.94;;;14.82;100.00
78016;BME280;67223;51.102;5.882;2023-09-19T03:10:06;100970.81;;;14.75;100.00
78016;BME280;67223;51.102;5.882;2023-09-19T03:12:32;100973.81;;;14.72;100.00
78016;BME280;67223;51.102;5.882;2023-09-19T03:14:59;100985.56;;;14.71;100.00
78016;BME280;67223;51.102;5.882;2023-09-19T03:17:24;100978.22;;;14.73;100.00
78016;BME280;67223;51.102;5.882;2023-09-19T03:19:50;100979.59;;;14.77;100.00
78016;BME280;67223;51.102;5.882;2023-09-19T03:22:16;100986.53;;;14.79;100.00
78016;BME280;67223;51.102;5.882;2023-09-19T03:24:41;100979.28;;;14.80;100.00
78016;BME280;67223;51.102;5.882;2023-09-19T03:27:09;100985.56;;;14.71;100.00
78016;BME280;67223;51.102;5.882;2023-09-19T03:29:35;100985.38;;;14.82;100.00
78016;BME280;67223;51.102;5.882;2023-09-19T03:32:00;100981.56;;;14.75;100.00
78016;BME280;67223;51.102;5.882;2023-09-19T03:34:27;100980.94;;;14.90;100.00
78016;BME280;67223;51.102;5.882;2023-09-19T03:36:52;100986.22;;;14.82;100.00
78016;BME280;67223;51.102;5.882;2023-09-19T03:39:17;100985.69;;;14.79;100.00
78016;BME280;67223;51.102;5.882;2023-09-19T03:41:43;100983.28;;;14.76;100.00
78016;BME280;67223;51.102;5.882;2023-09-19T03:44:10;100985.97;;;14.76;100.00
78016;BME280;67223;51.102;5.882;2023-09-19T03:46:35;100992.75;;;14.80;100.00
78016;BME280;67223;51.102;5.882;2023-09-19T03:49:01;100992.34;;;14.75;100.00
78016;BME280;67223;51.102;5.882;2023-09-19T03:51:26;100980.75;;;14.74;100.00
78016;BME280;67223;51.102;5.882;2023-09-19T03:53:52;100983.63;;;14.63;100.00
78016;BME280;67223;51.102;5.882;2023-09-19T03:56:17;100982.38;;;14.57;100.00
78016;BME280;67223;51.102;5.882;2023-09-19T03:58:42;100980.97;;;14.53;100.00
78016;BME280;67223;51.102;5.882;2023-09-19T04:03:43;100981.66;;;14.55;100.00
78016;BME280;67223;51.102;5.882;2023-09-19T04:06:14;100980.25;;;14.51;100.00
78016;BME280;67223;51.102;5.882;2023-09-19T04:08:39;100975.41;;;14.64;100.00
78016;BME280;67223;51.102;5.882;2023-09-19T04:11:05;100969.78;;;14.58;100.00
78016;BME280;67223;51.102;5.882;2023-09-19T04:13:30;100978.28;;;14.53;100.00
78016;BME280;67223;51.102;5.882;2023-09-19T04:15:55;100973.59;;;14.55;100.00
78016;BME280;67223;51.102;5.882;2023-09-19T04:18:21;100966.69;;;14.53;100.00
78016;BME280;67223;51.102;5.882;2023-09-19T04:20:52;100951.88;;;14.49;100.00
78016;BME280;67223;51.102;5.882;2023-09-19T04:23:18;100950.38;;;14.64;100.00
78016;BME280;67223;51.102;5.882;2023-09-19T04:25:46;100955.91;;;14.62;100.00
78016;BME280;67223;51.102;5.882;2023-09-19T04:28:11;100947.00;;;14.62;100.00
78016;BME280;67223;51.102;5.882;2023-09-19T04:30:38;100940.00;;;14.79;100.00
78016;BME280;67223;51.102;5.882;2023-09-19T04:33:05;100950.63;;;14.98;100.00
78016;BME280;67223;51.102;5.882;2023-09-19T04:35:31;100971.00;;;15.00;100.00
78016;BME280;67223;51.102;5.882;2023-09-19T04:37:57;100952.56;;;15.05;100.00
78016;BME280;67223;51.102;5.882;2023-09-19T04:40:22;100959.44;;;15.35;100.00
78016;BME280;67223;51.102;5.882;2023-09-19T04:42:56;100970.94;;;15.10;100.00
78016;BME280;67223;51.102;5.882;2023-09-19T04:45:25;100964.75;;;15.00;100.00
78016;BME280;67223;51.102;5.882;2023-09-19T04:47:51;100970.75;;;14.94;100.00
78016;BME280;67223;51.102;5.882;2023-09-19T04:50:16;100964.22;;;14.96;100.00
78016;BME280;67223;51.102;5.882;2023-09-19T04:52:45;100970.38;;;14.89;100.00
78016;BME280;67223;51.102;5.882;2023-09-19T04:55:17;100984.91;;;18.77;100.00
78016;BME280;67223;51.102;5.882;2023-09-19T04:57:44;100988.06;;;18.88;100.00
78016;BME280;67223;51.102;5.882;2023-09-19T05:00:14;100954.94;;;17.00;100.00
78016;BME280;67223;51.102;5.882;2023-09-19T05:02:41;100981.44;;;18.20;100.00
78016;BME280;67223;51.102;5.882;2023-09-19T05:05:08;100975.72;;;18.23;100.00
78016;BME280;67223;51.102;5.882;2023-09-19T05:07:34;100969.38;;;17.33;100.00
78016;BME280;67223;51.102;5.882;2023-09-19T05:10:00;100993.03;;;18.69;100.00
78016;BME280;67223;51.102;5.882;2023-09-19T05:12:28;100993.56;;;18.48;100.00
78016;BME280;67223;51.102;5.882;2023-09-19T05:14:54;100997.91;;;18.81;100.00
78016;BME280;67223;51.102;5.882;2023-09-19T05:17:20;101015.47;;;20.09;100.00
78016;BME280;67223;51.102;5.882;2023-09-19T05:19:45;100988.53;;;17.80;100.00
78016;BME280;67223;51.102;5.882;2023-09-19T05:22:11;101018.69;;;19.90;100.00
78016;BME280;67223;51.102;5.882;2023-09-19T05:24:37;101012.41;;;19.35;100.00
78016;BME280;67223;51.102;5.882;2023-09-19T05:27:04;101008.81;;;18.57;100.00
78016;BME280;67223;51.102;5.882;2023-09-19T05:29:32;101020.06;;;20.08;100.00
78016;BME280;67223;51.102;5.882;2023-09-19T05:31:58;100997.94;;;18.49;100.00
78016;BME280;67223;51.102;5.882;2023-09-19T05:34:24;101030.59;;;18.56;100.00
78016;BME280;67223;51.102;5.882;2023-09-19T05:36:51;101016.34;;;16.29;100.00
78016;BME280;67223;51.102;5.882;2023-09-19T05:39:17;101040.38;;;17.26;100.00
78016;BME280;67223;51.102;5.882;2023-09-19T05:41:43;101054.41;;;17.87;100.00
78016;BME280;67223;51.102;5.882;2023-09-19T05:44:08;101055.78;;;18.32;100.00
78016;BME280;67223;51.102;5.882;2023-09-19T05:46:34;101078.00;;;19.62;100.00
78016;BME280;67223;51.102;5.882;2023-09-19T05:49:00;101031.09;;;17.78;100.00
78016;BME280;67223;51.102;5.882;2023-09-19T05:51:25;101043.16;;;19.04;100.00
78016;BME280;67223;51.102;5.882;2023-09-19T05:53:54;101049.78;;;17.63;100.00
78016;BME280;67223;51.102;5.882;2023-09-19T05:56:20;101063.75;;;19.21;100.00
78016;BME280;67223;51.102;5.882;2023-09-19T05:58:45;101032.78;;;18.20;100.00
78016;BME280;67223;51.102;5.882;2023-09-19T06:01:11;101047.72;;;19.50;100.00
78016;BME280;67223;51.102;5.882;2023-09-19T06:03:36;101025.22;;;16.65;100.00
78016;BME280;67223;51.102;5.882;2023-09-19T06:06:02;101033.38;;;16.73;100.00
78016;BME280;67223;51.102;5.882;2023-09-19T06:08:29;101029.50;;;17.09;100.00
78016;BME280;67223;51.102;5.882;2023-09-19T06:10:56;101035.88;;;17.00;100.00
78016;BME280;67223;51.102;5.882;2023-09-19T06:13:21;101047.97;;;17.30;100.00
78016;BME280;67223;51.102;5.882;2023-09-19T06:15:47;101049.84;;;16.70;100.00
78016;BME280;67223;51.102;5.882;2023-09-19T06:18:13;101045.22;;;17.64;100.00
78016;BME280;67223;51.102;5.882;2023-09-19T06:20:46;101037.22;;;17.04;100.00
78016;BME280;67223;51.102;5.882;2023-09-19T06:23:12;101047.22;;;16.78;100.00
78016;BME280;67223;51.102;5.882;2023-09-19T06:25:38;101039.22;;;16.43;100.00
78016;BME280;67223;51.102;5.882;2023-09-19T06:28:04;101050.50;;;16.03;100.00
78016;BME280;67223;51.102;5.882;2023-09-19T06:30:30;101049.44;;;15.50;100.00
78016;BME280;67223;51.102;5.882;2023-09-19T06:32:58;101050.56;;;15.58;100.00
78016;BME280;67223;51.102;5.882;2023-09-19T06:35:24;101057.25;;;15.71;100.00
78016;BME280;67223;51.102;5.882;2023-09-19T06:37:51;101068.16;;;15.70;100.00
78016;BME280;67223;51.102;5.882;2023-09-19T06:40:18;101064.16;;;18.93;100.00
78016;BME280;67223;51.102;5.882;2023-09-19T06:42:46;101063.75;;;19.21;100.00
78016;BME280;67223;51.102;5.882;2023-09-19T06:45:13;101047.84;;;18.14;100.00
78016;BME280;67223;51.102;5.882;2023-09-19T06:47:43;101055.22;;;17.80;100.00
78016;BME280;67223;51.102;5.882;2023-09-19T06:50:11;101051.28;;;16.82;100.00
78016;BME280;67223;51.102;5.882;2023-09-19T06:52:42;101070.47;;;17.97;100.00
78016;BME280;67223;51.102;5.882;2023-09-19T06:55:07;101061.66;;;17.95;100.00
78016;BME280;67223;51.102;5.882;2023-09-19T06:57:35;101051.59;;;16.79;100.00
78016;BME280;67223;51.102;5.882;2023-09-19T07:00:00;101064.56;;;18.34;100.00
78016;BME280;67223;51.102;5.882;2023-09-19T07:02:27;101076.19;;;18.83;100.00
78016;BME280;67223;51.102;5.882;2023-09-19T07:04:52;101065.69;;;18.96;100.00
78016;BME280;67223;51.102;5.882;2023-09-19T07:07:17;101048.84;;;17.97;100.00
78016;BME280;67223;51.102;5.882;2023-09-19T07:09:43;101062.13;;;17.74;100.00
78016;BME280;67223;51.102;5.882;2023-09-19T07:12:08;101064.88;;;17.82;100.00
78016;BME280;67223;51.102;5.882;2023-09-19T07:14:34;101073.53;;;17.52;100.00
78016;BME280;67223;51.102;5.882;2023-09-19T07:17:00;101064.47;;;17.69;100.00
78016;BME280;67223;51.102;5.882;2023-09-19T07:19:26;101065.41;;;18.59;100.00
78016;BME280;67223;51.102;5.882;2023-09-19T07:21:53;101064.88;;;18.79;100.00
78016;BME280;67223;51.102;5.882;2023-09-19T07:24:19;101060.75;;;20.31;100.00
78016;BME280;67223;51.102;5.882;2023-09-19T07:26:45;101038.97;;;17.63;100.00
78016;BME280;67223;51.102;5.882;2023-09-19T07:29:10;101071.16;;;18.64;100.00
78016;BME280;67223;51.102;5.882;2023-09-19T07:31:36;101060.97;;;17.77;100.00
78016;BME280;67223;51.102;5.882;2023-09-19T07:34:01;101065.72;;;17.83;100.00
78016;BME280;67223;51.102;5.882;2023-09-19T07:36:29;101067.75;;;18.86;100.00
78016;BME280;67223;51.102;5.882;2023-09-19T07:38:55;101039.53;;;17.99;100.00
78016;BME280;67223;51.102;5.882;2023-09-19T07:41:23;101059.00;;;18.68;100.00
78016;BME280;67223;51.102;5.882;2023-09-19T07:43:49;101058.91;;;17.62;100.00
78016;BME280;67223;51.102;5.882;2023-09-19T07:46:14;101073.84;;;18.15;100.00
78016;BME280;67223;51.102;5.882;2023-09-19T07:48:40;101072.94;;;17.74;100.00
78016;BME280;67223;51.102;5.882;2023-09-19T07:51:08;101059.50;;;18.39;100.00
78016;BME280;67223;51.102;5.882;2023-09-19T07:53:34;101063.47;;;16.94;100.00
78016;BME280;67223;51.102;5.882;2023-09-19T07:58:29;101073.34;;;18.20;100.00
78016;BME280;67223;51.102;5.882;2023-09-19T08:00:54;101062.88;;;18.25;100.00
78016;BME280;67223;51.102;5.882;2023-09-19T08:03:20;101051.06;;;18.66;100.00
78016;BME280;67223;51.102;5.882;2023-09-19T08:05:45;101056.25;;;17.95;100.00
78016;BME280;67223;51.102;5.882;2023-09-19T08:08:11;101074.88;;;18.06;100.00
78016;BME280;67223;51.102;5.882;2023-09-19T08:10:39;101060.16;;;18.41;100.00
78016;BME280;67223;51.102;5.882;2023-09-19T08:13:07;101062.13;;;18.96;100.00
78016;BME280;67223;51.102;5.882;2023-09-19T08:15:42;101059.00;;;20.38;100.00
78016;BME280;67223;51.102;5.882;2023-09-19T08:18:09;101051.69;;;18.92;100.00
78016;BME280;67223;51.102;5.882;2023-09-19T08:20:37;101064.16;;;19.80;100.00
78016;BME280;67223;51.102;5.882;2023-09-19T08:23:03;101044.00;;;20.94;100.00
78016;BME280;67223;51.102;5.882;2023-09-19T08:25:29;101048.69;;;20.11;100.00
78016;BME280;67223;51.102;5.882;2023-09-19T08:27:55;101058.47;;;21.75;100.00
78016;BME280;67223;51.102;5.882;2023-09-19T08:30:24;101047.13;;;21.35;100.00
78016;BME280;67223;51.102;5.882;2023-09-19T08:32:59;101043.78;;;20.52;100.00
78016;BME280;67223;51.102;5.882;2023-09-19T08:35:25;101054.31;;;22.15;100.00
78016;BME280;67223;51.102;5.882;2023-09-19T08:37:51;101045.66;;;20.51;100.00
78016;BME280;67223;51.102;5.882;2023-09-19T08:40:16;101053.19;;;21.08;100.00
78016;BME280;67223;51.102;5.882;2023-09-19T08:42:50;101062.13;;;19.82;100.00
78016;BME280;67223;51.102;5.882;2023-09-19T08:45:16;101063.22;;;21.37;100.00
78016;BME280;67223;51.102;5.882;2023-09-19T08:47:46;101047.97;;;20.40;100.00
78016;BME280;67223;51.102;5.882;2023-09-19T08:50:39;101059.34;;;22.18;100.00
78016;BME280;67223;51.102;5.882;2023-09-19T08:53:11;101055.50;;;22.12;100.00
78016;BME280;67223;51.102;5.882;2023-09-19T08:55:42;101053.16;;;21.52;100.00
78016;BME280;67223;51.102;5.882;2023-09-19T08:58:10;101039.53;;;22.52;100.00
78016;BME280;67223;51.102;5.882;2023-09-19T09:00:38;101041.28;;;21.74;100.00
78016;BME280;67223;51.102;5.882;2023-09-19T09:03:09;101034.69;;;20.45;100.00
78016;BME280;67223;51.102;5.882;2023-09-19T09:05:36;101034.28;;;19.88;100.00
78016;BME280;67223;51.102;5.882;2023-09-19T09:08:02;101039.66;;;20.41;100.00
78016;BME280;67223;51.102;5.882;2023-09-19T09:10:32;101041.28;;;21.74;100.00
78016;BME280;67223;51.102;5.882;2023-09-19T09:12:58;101027.13;;;21.79;100.00
78016;BME280;67223;51.102;5.882;2023-09-19T09:15:24;101029.75;;;20.03;100.00
78016;BME280;67223;51.102;5.882;2023-09-19T09:17:50;101016.84;;;21.09;100.00
78016;BME280;67223;51.102;5.882;2023-09-19T09:20:18;101013.72;;;20.39;100.00
78016;BME280;67223;51.102;5.882;2023-09-19T09:22:51;101019.91;;;19.87;100.00
78016;BME280;67223;51.102;5.882;2023-09-19T09:25:17;101027.44;;;20.75;100.00
78016;BME280;67223;51.102;5.882;2023-09-19T09:27:43;101027.88;;;21.73;100.00
78016;BME280;67223;51.102;5.882;2023-09-19T09:30:08;101020.53;;;21.67;100.00
78016;BME280;67223;51.102;5.882;2023-09-19T09:32:34;101018.34;;;20.82;100.00
78016;BME280;67223;51.102;5.882;2023-09-19T09:35:07;101017.94;;;21.80;100.00
78016;BME280;67223;51.102;5.882;2023-09-19T09:37:35;101023.13;;;22.94;100.00
78016;BME280;67223;51.102;5.882;2023-09-19T09:40:04;101024.69;;;22.82;100.00
78016;BME280;67223;51.102;5.882;2023-09-19T09:42:50;101019.69;;;21.87;100.00
78016;BME280;67223;51.102;5.882;2023-09-19T09:45:19;101022.50;;;22.15;100.00
78016;BME280;67223;51.102;5.882;2023-09-19T09:48:14;101012.66;;;22.70;100.00
78016;BME280;67223;51.102;5.882;2023-09-19T09:50:47;101009.28;;;20.90;100.00
78016;BME280;67223;51.102;5.882;2023-09-19T09:53:27;101020.16;;;20.38;100.00
78016;BME280;67223;51.102;5.882;2023-09-19T09:56:01;101010.59;;;20.65;100.00
78016;BME280;67223;51.102;5.882;2023-09-19T09:58:28;101013.00;;;20.59;100.00
78016;BME280;67223;51.102;5.882;2023-09-19T10:00:58;101015.84;;;21.61;100.00
78016;BME280;67223;51.102;5.882;2023-09-19T10:03:33;101010.50;;;21.88;100.00
78016;BME280;67223;51.102;5.882;2023-09-19T10:06:00;101015.31;;;21.72;100.00
78016;BME280;67223;51.102;5.882;2023-09-19T10:08:34;101001.84;;;21.13;100.00
78016;BME280;67223;51.102;5.882;2023-09-19T10:11:01;101002.78;;;20.32;100.00
78016;BME280;67223;51.102;5.882;2023-09-19T10:13:40;100995.53;;;21.21;100.00
78016;BME280;67223;51.102;5.882;2023-09-19T10:16:09;100999.53;;;21.82;100.00
78016;BME280;67223;51.102;5.882;2023-09-19T10:18:36;100992.50;;;20.19;100.00
78016;BME280;67223;51.102;5.882;2023-09-19T10:21:04;101006.47;;;21.63;100.00
78016;BME280;67223;51.102;5.882;2023-09-19T10:23:32;101005.91;;;21.17;100.00
78016;BME280;67223;51.102;5.882;2023-09-19T10:26:00;100988.88;;;20.79;100.00
78016;BME280;67223;51.102;5.882;2023-09-19T10:28:28;100991.09;;;21.05;100.00
78016;BME280;67223;51.102;5.882;2023-09-19T10:30:56;100995.97;;;21.60;100.00
78016;BME280;67223;51.102;5.882;2023-09-19T10:33:24;100990.81;;;21.29;100.00
78016;BME280;67223;51.102;5.882;2023-09-19T10:35:53;100983.63;;;21.79;100.00
78016;BME280;67223;51.102;5.882;2023-09-19T10:38:23;100990.63;;;21.31;100.00
78016;BME280;67223;51.102;5.882;2023-09-19T10:40:55;100994.81;;;21.33;100.00
78016;BME280;67223;51.102;5.882;2023-09-19T10:43:30;100987.31;;;21.71;100.00
78016;BME280;67223;51.102;5.882;2023-09-19T10:46:05;100990.50;;;22.73;100.00
78016;BME280;67223;51.102;5.882;2023-09-19T10:48:32;100986.03;;;22.10;100.00
78016;BME280;67223;51.102;5.882;2023-09-19T10:51:10;100992.63;;;22.71;100.00
78016;BME280;67223;51.102;5.882;2023-09-19T10:56:24;100976.59;;;22.33;100.00
78016;BME280;67223;51.102;5.882;2023-09-19T10:59:05;100995.72;;;23.50;100.00
78016;BME280;67223;51.102;5.882;2023-09-19T11:04:40;100991.63;;;22.57;100.00
78016;BME280;67223;51.102;5.882;2023-09-19T11:07:08;100986.59;;;22.82;100.00
78016;BME280;67223;51.102;5.882;2023-09-19T11:09:49;101004.88;;;23.36;100.00
78016;BME280;67223;51.102;5.882;2023-09-19T11:26:47;100995.44;;;22.91;100.00
78016;BME280;67223;51.102;5.882;2023-09-19T11:29:29;100982.94;;;23.50;100.00
78016;BME280;67223;51.102;5.882;2023-09-19T11:31:57;100972.44;;;22.38;100.00
78016;BME280;67223;51.102;5.882;2023-09-19T11:34:37;100978.25;;;23.38;100.00
78016;BME280;67223;51.102;5.882;2023-09-19T11:39:37;100958.66;;;24.01;100.00
78016;BME280;67223;51.102;5.882;2023-09-19T11:42:41;100953.41;;;24.07;100.00
78016;BME280;67223;51.102;5.882;2023-09-19T11:45:07;100949.63;;;24.01;100.00
78016;BME280;67223;51.102;5.882;2023-09-19T11:47:33;100959.31;;;23.90;100.00
78016;BME280;67223;51.102;5.882;2023-09-19T11:50:01;100951.13;;;24.03;100.00
78016;BME280;67223;51.102;5.882;2023-09-19T11:52:28;100958.69;;;23.14;100.00
78016;BME280;67223;51.102;5.882;2023-09-19T11:55:00;100946.72;;;23.96;100.00
78016;BME280;67223;51.102;5.882;2023-09-19T11:57:27;100945.44;;;23.79;100.00
78016;BME280;67223;51.102;5.882;2023-09-19T11:59:53;100956.91;;;23.48;100.00
78016;BME280;67223;51.102;5.882;2023-09-19T12:02:39;100953.56;;;22.64;100.00
78016;BME280;67223;51.102;5.882;2023-09-19T12:07:42;100949.69;;;23.21;100.00
78016;BME280;67223;51.102;5.882;2023-09-19T12:10:08;100932.56;;;22.86;100.00
78016;BME280;67223;51.102;5.882;2023-09-19T12:12:36;100937.50;;;23.16;100.00
78016;BME280;67223;51.102;5.882;2023-09-19T12:15:02;100943.34;;;23.61;100.00
78016;BME280;67223;51.102;5.882;2023-09-19T12:17:39;100928.91;;;23.13;100.00
78016;BME280;67223;51.102;5.882;2023-09-19T12:20:06;100929.59;;;22.18;100.00
78016;BME280;67223;51.102;5.882;2023-09-19T12:22:44;100927.28;;;22.71;100.00
78016;BME280;67223;51.102;5.882;2023-09-19T12:25:11;100934.44;;;23.39;100.00
78016;BME280;67223;51.102;5.882;2023-09-19T12:27:44;100921.50;;;23.54;100.00
78016;BME280;67223;51.102;5.882;2023-09-19T12:30:13;100925.69;;;22.27;100.00
78016;BME280;67223;51.102;5.882;2023-09-19T12:32:46;100919.53;;;22.47;100.00
78016;BME280;67223;51.102;5.882;2023-09-19T12:35:43;100911.81;;;22.16;100.00
78016;BME280;67223;51.102;5.882;2023-09-19T12:38:10;100912.06;;;22.90;100.00
78016;BME280;67223;51.102;5.882;2023-09-19T12:40:36;100893.34;;;21.62;100.00
78016;BME280;67223;51.102;5.882;2023-09-19T12:43:03;100900.41;;;21.35;100.00
78016;BME280;67223;51.102;5.882;2023-09-19T12:45:30;100898.69;;;21.98;100.00
78016;BME280;67223;51.102;5.882;2023-09-19T12:48:22;100892.72;;;21.88;100.00
78016;BME280;67223;51.102;5.882;2023-09-19T12:51:06;100904.88;;;22.48;100.00
78016;BME280;67223;51.102;5.882;2023-09-19T12:53:40;100913.59;;;22.37;100.00
78016;BME280;67223;51.102;5.882;2023-09-19T12:56:08;100918.94;;;23.46;100.00
78016;BME280;67223;51.102;5.882;2023-09-19T12:58:57;100923.19;;;23.62;100.00
78016;BME280;67223;51.102;5.882;2023-09-19T13:01:24;100926.53;;;23.64;100.00
78016;BME280;67223;51.102;5.882;2023-09-19T13:04:16;100926.25;;;22.79;100.00
78016;BME280;67223;51.102;5.882;2023-09-19T13:06:48;100928.03;;;22.99;100.00
78016;BME280;67223;51.102;5.882;2023-09-19T13:09:15;100940.28;;;22.82;100.00
78016;BME280;67223;51.102;5.882;2023-09-19T13:11:41;100950.38;;;23.36;100.00
78016;BME280;67223;51.102;5.882;2023-09-19T13:14:23;100949.53;;;23.35;100.00
78016;BME280;67223;51.102;5.882;2023-09-19T13:17:02;100940.72;;;22.51;100.00
78016;BME280;67223;51.102;5.882;2023-09-19T13:19:45;100939.75;;;23.00;100.00
78016;BME280;67223;51.102;5.882;2023-09-19T13:22:42;100929.19;;;22.49;100.00
78016;BME280;67223;51.102;5.882;2023-09-19T13:25:19;100945.19;;;22.31;100.00
78016;BME280;67223;51.102;5.882;2023-09-19T13:27:49;100931.84;;;20.94;100.00
78016;BME280;67223;51.102;5.882;2023-09-19T13:30:20;100927.38;;;21.58;100.00
78016;BME280;67223;51.102;5.882;2023-09-19T13:32:46;100933.63;;;22.57;100.00
78016;BME280;67223;51.102;5.882;2023-09-19T13:35:15;100929.44;;;21.99;100.00
78016;BME280;67223;51.102;5.882;2023-09-19T13:37:42;100931.19;;;21.85;100.00
78016;BME280;67223;51.102;5.882;2023-09-19T13:42:34;100930.84;;;22.16;100.00
78016;BME280;67223;51.102;5.882;2023-09-19T13:44:59;100935.09;;;21.55;100.00
78016;BME280;67223;51.102;5.882;2023-09-19T13:47:25;100939.00;;;21.52;100.00
78016;BME280;67223;51.102;5.882;2023-09-19T13:49:52;100937.28;;;20.94;100.00
78016;BME280;67223;51.102;5.882;2023-09-19T13:52:19;100925.16;;;21.47;100.00
78016;BME280;67223;51.102;5.882;2023-09-19T13:54:44;100939.72;;;21.82;100.00
78016;BME280;67223;51.102;5.882;2023-09-19T13:57:10;100939.41;;;22.13;100.00
78016;BME280;67223;51.102;5.882;2023-09-19T13:59:35;100931.06;;;22.49;100.00
78016;BME280;67223;51.102;5.882;2023-09-19T14:02:01;100927.69;;;22.47;100.00
78016;BME280;67223;51.102;5.882;2023-09-19T14:04:31;100940.63;;;21.11;100.00
78016;BME280;67223;51.102;5.882;2023-09-19T14:06:56;100934.34;;;21.88;100.00
78016;BME280;67223;51.102;5.882;2023-09-19T14:09:23;100936.97;;;21.54;100.00
78016;BME280;67223;51.102;5.882;2023-09-19T14:11:50;100941.81;;;22.29;100.00
78016;BME280;67223;51.102;5.882;2023-09-19T14:14:18;100941.84;;;21.23;100.00
78016;BME280;67223;51.102;5.882;2023-09-19T14:16:43;100938.75;;;21.26;100.00
78016;BME280;67223;51.102;5.882;2023-09-19T14:19:09;100926.13;;;22.03;100.00